createdAt,value
2019-02-11T00:02:27.882Z,6.30
2019-02-11T00:04:55.095Z,6.20
2019-02-11T00:07:22.563Z,6.20
2019-02-11T00:09:49.862Z,6.20
2019-02-11T00:12:17.087Z,6.20
2019-02-11T00:14:44.270Z,6.10
2019-02-11T00:17:12.471Z,6.10
2019-02-11T00:19:39.642Z,6.00
2019-02-11T00:22:06.974Z,6.00
2019-02-11T00:24:34.169Z,5.90
2019-02-11T00:27:01.372Z,5.90
2019-02-11T00:29:28.587Z,5.90
2019-02-11T00:31:55.794Z,5.90
2019-02-11T00:34:22.994Z,5.90
2019-02-11T00:36:50.205Z,5.80
2019-02-11T00:39:17.387Z,5.80
2019-02-11T00:41:44.726Z,5.70
2019-02-11T00:44:12.450Z,5.70
2019-02-11T00:46:39.856Z,5.70
2019-02-11T00:49:07.275Z,5.60
2019-02-11T00:51:34.651Z,5.60
2019-02-11T00:54:01.808Z,5.60
2019-02-11T00:56:29.031Z,5.60
2019-02-11T00:58:56.236Z,5.60
2019-02-11T01:01:23.679Z,5.50
2019-02-11T01:03:51.115Z,5.50
2019-02-11T01:06:18.571Z,5.50
2019-02-11T01:08:45.996Z,5.50
2019-02-11T01:11:13.280Z,5.40
2019-02-11T01:13:41.586Z,5.40
2019-02-11T01:16:08.978Z,5.40
2019-02-11T01:18:36.392Z,5.40
2019-02-11T01:21:04.763Z,5.40
2019-02-11T01:23:33.795Z,5.40
2019-02-11T01:26:00.967Z,5.30
2019-02-11T01:28:28.239Z,5.30
2019-02-11T01:30:55.416Z,5.30
2019-02-11T01:33:22.850Z,5.30
2019-02-11T01:35:50.050Z,5.30
2019-02-11T01:38:17.263Z,5.30
2019-02-11T01:40:44.575Z,5.20
2019-02-11T01:43:11.862Z,5.20
2019-02-11T01:45:39.256Z,5.20
2019-02-11T01:48:06.590Z,5.20
2019-02-11T01:50:33.868Z,5.20
2019-02-11T01:53:01.225Z,5.20
2019-02-11T01:55:28.418Z,5.20
2019-02-11T01:57:55.631Z,5.20
2019-02-11T02:00:22.978Z,5.20
2019-02-11T02:02:51.575Z,5.20
2019-02-11T02:05:18.833Z,5.10
2019-02-11T02:07:46.118Z,5.20
2019-02-11T02:10:14.699Z,5.20
2019-02-11T02:12:41.910Z,5.20
2019-02-11T02:15:09.928Z,5.10
2019-02-11T02:17:37.134Z,5.10
2019-02-11T02:20:05.342Z,5.10
2019-02-11T02:22:32.806Z,5.00
2019-02-11T02:25:00.038Z,5.10
2019-02-11T02:27:27.231Z,5.10
2019-02-11T02:29:54.590Z,5.10
2019-02-11T02:32:21.994Z,5.00
2019-02-11T02:34:49.411Z,5.00
2019-02-11T02:37:16.610Z,5.00
2019-02-11T02:39:44.091Z,5.00
2019-02-11T02:42:11.424Z,4.90
2019-02-11T02:44:38.991Z,4.90
2019-02-11T02:47:06.277Z,4.90
2019-02-11T02:49:33.627Z,4.90
2019-02-11T02:52:01.032Z,4.80
2019-02-11T02:54:28.224Z,4.90
2019-02-11T02:56:55.405Z,4.90
2019-02-11T02:59:22.499Z,4.90
2019-02-11T03:01:49.727Z,4.80
2019-02-11T03:04:17.139Z,4.80
2019-02-11T03:06:44.338Z,4.80
2019-02-11T03:09:11.530Z,4.80
2019-02-11T03:11:38.839Z,4.70
2019-02-11T03:14:06.915Z,4.70
2019-02-11T03:16:34.207Z,4.70
2019-02-11T03:19:01.504Z,4.70
2019-02-11T03:21:28.951Z,4.70
2019-02-11T03:23:56.271Z,4.70
2019-02-11T03:26:23.491Z,4.60
2019-02-11T03:28:50.658Z,4.70
2019-02-11T03:31:17.980Z,4.60
2019-02-11T03:33:45.285Z,4.70
2019-02-11T03:36:12.460Z,4.70
2019-02-11T03:38:39.818Z,4.60
2019-02-11T03:41:07.118Z,4.60
2019-02-11T03:43:34.398Z,4.60
2019-02-11T03:46:01.615Z,4.60
2019-02-11T03:48:28.871Z,4.60
2019-02-11T03:50:55.963Z,4.60
2019-02-11T03:53:23.334Z,4.60
2019-02-11T03:55:50.530Z,4.60
2019-02-11T03:58:17.702Z,4.60
2019-02-11T04:00:44.925Z,4.50
2019-02-11T04:03:12.076Z,4.60
2019-02-11T04:05:39.640Z,4.60
2019-02-11T04:08:06.951Z,4.60
2019-02-11T04:10:34.251Z,4.50
2019-02-11T04:13:01.502Z,4.50
2019-02-11T04:15:29.267Z,4.40
2019-02-11T04:17:56.539Z,4.40
2019-02-11T04:20:23.942Z,4.40
2019-02-11T04:22:51.273Z,4.50
2019-02-11T04:25:18.443Z,4.40
2019-02-11T04:27:45.650Z,4.50
2019-02-11T04:30:12.852Z,4.50
2019-02-11T04:32:40.139Z,4.50
2019-02-11T04:35:07.206Z,4.50
2019-02-11T04:37:34.399Z,4.40
2019-02-11T04:40:01.563Z,4.50
2019-02-11T04:42:28.631Z,4.50
2019-02-11T04:44:55.794Z,4.50
2019-02-11T04:47:22.882Z,4.50
2019-02-11T04:49:49.949Z,4.50
2019-02-11T04:52:17.119Z,4.50
2019-02-11T04:54:45.278Z,4.50
2019-02-11T04:57:12.576Z,4.50
2019-02-11T04:59:39.827Z,4.60
2019-02-11T05:02:07.160Z,4.50
2019-02-11T05:04:34.234Z,4.40
2019-02-11T05:07:01.325Z,4.40
2019-02-11T05:09:28.517Z,4.40
2019-02-11T05:11:55.948Z,4.40
2019-02-11T05:14:23.213Z,4.50
2019-02-11T05:16:50.595Z,4.40
2019-02-11T05:19:17.688Z,4.50
2019-02-11T05:21:47.719Z,4.50
2019-02-11T05:24:15.240Z,4.50
2019-02-11T05:26:42.637Z,4.50
2019-02-11T05:29:09.858Z,4.50
2019-02-11T05:31:37.282Z,4.60
2019-02-11T05:34:04.364Z,4.60
2019-02-11T05:36:31.487Z,4.60
2019-02-11T05:38:58.884Z,4.60
2019-02-11T05:41:26.289Z,4.60
2019-02-11T05:43:53.491Z,4.70
2019-02-11T05:46:20.734Z,4.70
2019-02-11T05:48:47.814Z,4.70
2019-02-11T05:51:15.076Z,4.80
2019-02-11T05:53:42.155Z,4.80
2019-02-11T05:56:09.199Z,4.80
2019-02-11T05:58:36.290Z,4.90
2019-02-11T06:01:03.448Z,4.90
2019-02-11T06:03:30.760Z,4.90
2019-02-11T06:05:57.940Z,4.90
2019-02-11T06:08:25.139Z,5.00
2019-02-11T06:10:52.341Z,4.90
2019-02-11T06:13:19.637Z,4.90
2019-02-11T06:15:47.006Z,4.90
2019-02-11T06:18:14.103Z,4.90
2019-02-11T06:20:41.154Z,4.90
2019-02-11T06:23:08.384Z,5.00
2019-02-11T06:25:35.585Z,5.00
2019-02-11T06:28:02.775Z,5.00
2019-02-11T06:30:29.980Z,5.00
2019-02-11T06:32:57.146Z,5.00
2019-02-11T06:35:24.223Z,5.00
2019-02-11T06:37:51.392Z,5.10
2019-02-11T06:40:18.478Z,5.10
2019-02-11T06:42:45.657Z,5.10
2019-02-11T06:45:13.567Z,5.10
2019-02-11T06:47:40.948Z,5.10
2019-02-11T06:50:08.979Z,5.10
2019-02-11T06:52:36.171Z,5.10
2019-02-11T06:55:04.240Z,5.20
2019-02-11T06:57:31.295Z,5.20
2019-02-11T06:59:58.604Z,5.20
2019-02-11T07:02:25.685Z,5.20
2019-02-11T07:04:52.804Z,5.20
2019-02-11T07:07:20.206Z,5.20
2019-02-11T07:09:47.339Z,5.20
2019-02-11T07:12:14.403Z,5.20
2019-02-11T07:14:41.507Z,5.30
2019-02-11T07:17:08.666Z,5.30
2019-02-11T07:19:35.760Z,5.30
2019-02-11T07:22:02.942Z,5.30
2019-02-11T07:24:30.369Z,5.30
2019-02-11T07:26:57.612Z,5.40
2019-02-11T07:29:24.779Z,5.50
2019-02-11T07:31:51.870Z,5.50
2019-02-11T07:34:19.072Z,5.50
2019-02-11T07:36:46.156Z,5.50
2019-02-11T07:39:13.335Z,5.50
2019-02-11T07:42:00.073Z,5.50
2019-02-11T07:44:32.982Z,5.60
2019-02-11T07:47:01.747Z,5.60
2019-02-11T07:49:28.819Z,5.60
2019-02-11T07:51:55.902Z,5.60
2019-02-11T07:54:23.171Z,5.60
2019-02-11T07:56:50.271Z,5.60
2019-02-11T07:59:17.539Z,5.70
2019-02-11T08:01:44.840Z,5.70
2019-02-11T08:04:13.135Z,5.80
2019-02-11T08:06:40.366Z,5.70
2019-02-11T08:09:10.539Z,5.70
2019-02-11T08:11:37.618Z,5.70
2019-02-11T08:14:04.702Z,5.80
2019-02-11T08:16:31.847Z,5.70
2019-02-11T08:18:59.124Z,5.70
2019-02-11T08:21:26.458Z,5.80
2019-02-11T08:23:53.520Z,5.90
2019-02-11T08:26:20.711Z,5.90
2019-02-11T08:28:51.492Z,5.90
2019-02-11T08:31:18.631Z,6.00
2019-02-11T08:33:46.709Z,6.00
2019-02-11T08:36:13.900Z,6.00
2019-02-11T08:38:41.070Z,6.00
2019-02-11T08:41:08.255Z,6.10
2019-02-11T08:43:35.415Z,6.30
2019-02-11T08:46:02.499Z,6.50
2019-02-11T08:48:29.572Z,6.60
2019-02-11T08:50:56.804Z,6.60
2019-02-11T08:53:23.850Z,6.50
2019-02-11T08:55:51.171Z,6.50
2019-02-11T08:58:19.318Z,6.40
2019-02-11T09:00:46.509Z,6.60
2019-02-11T09:03:14.662Z,6.70
2019-02-11T09:05:41.930Z,6.70
2019-02-11T09:08:09.029Z,6.70
2019-02-11T09:10:36.215Z,6.60
2019-02-11T09:13:03.323Z,6.50
2019-02-11T09:15:30.551Z,6.50
2019-02-11T09:17:57.632Z,6.50
2019-02-11T09:20:24.703Z,6.50
2019-02-11T09:22:51.918Z,6.50
2019-02-11T09:25:19.311Z,6.50
2019-02-11T09:27:46.739Z,6.50
2019-02-11T09:30:14.441Z,6.40
2019-02-11T09:32:41.746Z,6.40
2019-02-11T09:35:09.055Z,6.40
2019-02-11T09:37:36.746Z,6.50
2019-02-11T09:40:05.284Z,6.50
2019-02-11T09:42:32.618Z,6.50
2019-02-11T09:44:59.883Z,6.40
2019-02-11T09:47:27.132Z,6.40
2019-02-11T09:50:11.881Z,6.60
2019-02-11T09:52:39.108Z,7.40
2019-02-11T09:55:11.237Z,8.80
2019-02-11T09:57:38.335Z,8.60
2019-02-11T10:00:05.779Z,8.10
2019-02-11T10:02:33.061Z,7.70
2019-02-11T10:05:00.380Z,7.40
2019-02-11T10:07:27.587Z,7.30
2019-02-11T10:09:55.756Z,7.10
2019-02-11T10:12:23.179Z,7.00
2019-02-11T10:14:50.228Z,7.10
2019-02-11T10:17:18.666Z,7.90
2019-02-11T10:19:45.931Z,9.50
2019-02-11T10:22:13.227Z,11.00
2019-02-11T10:24:40.486Z,11.60
2019-02-11T10:27:07.691Z,11.80
2019-02-11T10:29:34.863Z,10.90
2019-02-11T10:32:01.955Z,10.60
2019-02-11T10:34:31.091Z,9.60
2019-02-11T10:36:58.327Z,8.80
2019-02-11T10:39:25.419Z,8.50
2019-02-11T10:41:52.702Z,8.80
2019-02-11T10:44:19.799Z,9.10
2019-02-11T10:46:47.102Z,9.90
2019-02-11T10:49:14.411Z,10.40
2019-02-11T10:51:42.875Z,9.40
2019-02-11T10:54:10.171Z,8.50
2019-02-11T10:56:37.540Z,7.90
2019-02-11T10:59:04.618Z,7.60
2019-02-11T11:01:31.919Z,7.30
2019-02-11T11:03:59.163Z,7.20
2019-02-11T11:06:27.460Z,7.00
2019-02-11T11:08:54.669Z,7.00
2019-02-11T11:11:22.114Z,7.10
2019-02-11T11:13:49.435Z,7.20
2019-02-11T11:16:16.811Z,7.30
2019-02-11T11:18:44.172Z,7.40
2019-02-11T11:21:12.267Z,7.40
2019-02-11T11:23:39.478Z,7.60
2019-02-11T11:26:06.871Z,7.80
2019-02-11T11:28:34.239Z,8.00
2019-02-11T11:31:01.386Z,7.90
2019-02-11T11:33:28.679Z,8.00
2019-02-11T11:35:55.884Z,8.20
2019-02-11T11:38:23.147Z,8.00
2019-02-11T11:40:50.474Z,8.10
2019-02-11T11:43:17.792Z,8.20
2019-02-11T11:45:44.894Z,8.20
2019-02-11T11:48:12.171Z,8.10
2019-02-11T11:50:39.462Z,8.20
2019-02-11T11:53:06.842Z,8.10
2019-02-11T11:55:34.135Z,8.30
2019-02-11T11:58:01.431Z,8.30
2019-02-11T12:00:28.655Z,8.30
2019-02-11T12:03:02.659Z,8.30
2019-02-11T12:05:26.267Z,8.30
2019-02-11T12:07:53.528Z,8.20
2019-02-11T12:10:21.053Z,8.10
2019-02-11T12:12:48.458Z,8.20
2019-02-11T12:15:17.663Z,8.10
2019-02-11T12:17:45.810Z,7.90
2019-02-11T12:20:13.165Z,7.80
2019-02-11T12:22:40.345Z,7.80
2019-02-11T12:25:09.526Z,7.90
2019-02-11T12:27:36.807Z,7.80
2019-02-11T12:30:05.725Z,7.60
2019-02-11T12:32:33.077Z,7.60
2019-02-11T12:35:00.504Z,7.60
2019-02-11T12:37:27.754Z,7.50
2019-02-11T12:39:55.126Z,7.60
2019-02-11T12:42:22.325Z,7.70
2019-02-11T12:44:49.629Z,7.90
2019-02-11T12:47:16.900Z,7.70
2019-02-11T12:49:44.106Z,7.60
2019-02-11T12:52:11.269Z,7.70
2019-02-11T12:54:38.600Z,7.60
2019-02-11T12:57:05.887Z,7.60
2019-02-11T12:59:33.073Z,7.60
2019-02-11T13:02:00.267Z,7.70
2019-02-11T13:04:27.426Z,7.80
2019-02-11T13:06:54.935Z,7.80
2019-02-11T13:09:22.316Z,7.90
2019-02-11T13:11:49.530Z,8.00
2019-02-11T13:14:17.054Z,8.10
2019-02-11T13:16:44.520Z,8.10
2019-02-11T13:19:11.908Z,8.20
2019-02-11T13:21:39.386Z,8.20
2019-02-11T13:24:06.801Z,8.20
2019-02-11T13:26:35.325Z,8.20
2019-02-11T13:29:02.811Z,8.20
2019-02-11T13:31:30.362Z,8.20
2019-02-11T13:33:57.677Z,8.00
2019-02-11T13:36:25.101Z,7.90
2019-02-11T13:38:52.486Z,7.90
2019-02-11T13:41:19.779Z,8.00
2019-02-11T13:43:49.777Z,7.90
2019-02-11T13:46:16.967Z,8.00
2019-02-11T13:48:47.492Z,7.90
2019-02-11T13:51:14.725Z,8.00
2019-02-11T13:53:43.903Z,8.00
2019-02-11T13:56:11.430Z,7.90
2019-02-11T13:58:38.669Z,7.90
2019-02-11T14:01:07.152Z,7.90
2019-02-11T14:03:34.546Z,8.00
2019-02-11T14:06:01.912Z,8.00
2019-02-11T14:08:29.148Z,8.10
2019-02-11T14:10:56.629Z,8.20
2019-02-11T14:13:24.040Z,8.20
2019-02-11T14:15:51.335Z,8.00
2019-02-11T14:18:18.991Z,7.90
2019-02-11T14:20:49.435Z,7.90
2019-02-11T14:23:15.519Z,7.90
2019-02-11T14:25:46.576Z,7.90
2019-02-11T14:28:12.157Z,7.90
2019-02-11T14:30:40.679Z,7.90
2019-02-11T14:33:08.743Z,7.90
2019-02-11T14:35:36.132Z,7.80
2019-02-11T14:38:03.862Z,7.90
2019-02-11T14:40:31.918Z,7.90
2019-02-11T14:42:59.793Z,8.00
2019-02-11T14:45:27.435Z,8.00
2019-02-11T14:47:55.422Z,8.00
2019-02-11T14:50:22.778Z,8.10
2019-02-11T14:52:50.425Z,8.10
2019-02-11T14:55:17.988Z,8.10
2019-02-11T14:57:45.475Z,8.10
2019-02-11T15:00:19.048Z,8.10
2019-02-11T15:02:46.291Z,8.00
2019-02-11T15:05:14.610Z,7.90
2019-02-11T15:07:42.246Z,7.80
2019-02-11T15:10:09.506Z,7.80
2019-02-11T15:12:36.904Z,7.70
2019-02-11T15:15:04.471Z,7.60
2019-02-11T15:17:31.776Z,7.60
2019-02-11T15:19:59.236Z,7.70
2019-02-11T15:22:28.085Z,7.60
2019-02-11T15:24:55.750Z,7.60
2019-02-11T15:27:23.167Z,7.40
2019-02-11T15:29:50.595Z,7.40
2019-02-11T15:32:17.820Z,7.40
2019-02-11T15:34:48.531Z,7.40
2019-02-11T15:37:15.952Z,7.50
2019-02-11T15:39:44.260Z,7.40
2019-02-11T15:42:11.565Z,7.30
2019-02-11T15:44:38.899Z,7.30
2019-02-11T15:47:06.334Z,7.20
2019-02-11T15:49:33.743Z,7.00
2019-02-11T15:52:02.268Z,7.00
2019-02-11T15:54:29.609Z,7.00
2019-02-11T15:56:57.110Z,6.90
2019-02-11T15:59:37.090Z,6.90
2019-02-11T16:02:04.368Z,6.90
2019-02-11T16:04:31.541Z,6.80
2019-02-11T16:06:58.947Z,6.80
2019-02-11T16:09:26.422Z,6.80
2019-02-11T16:11:53.772Z,6.80
2019-02-11T16:14:21.282Z,6.70
2019-02-11T16:16:48.393Z,6.60
2019-02-11T16:19:15.915Z,6.60
2019-02-11T16:21:43.132Z,6.50
2019-02-11T16:24:10.227Z,6.50
2019-02-11T16:26:38.006Z,6.50
2019-02-11T16:29:05.355Z,6.50
2019-02-11T16:31:32.750Z,6.50
2019-02-11T16:34:00.293Z,6.60
2019-02-11T16:36:27.420Z,6.60
2019-02-11T16:38:54.971Z,6.60
2019-02-11T16:41:22.427Z,6.60
2019-02-11T16:43:49.809Z,6.60
2019-02-11T16:46:17.162Z,6.70
2019-02-11T16:48:44.568Z,6.70
2019-02-11T16:51:11.800Z,6.70
2019-02-11T16:53:39.389Z,6.60
2019-02-11T16:56:06.668Z,6.60
2019-02-11T16:58:34.085Z,6.60
2019-02-11T17:01:01.499Z,6.60
2019-02-11T17:03:28.775Z,6.60
2019-02-11T17:05:56.003Z,6.50
2019-02-11T17:08:23.207Z,6.40
2019-02-11T17:10:50.434Z,6.40
2019-02-11T17:13:17.824Z,6.30
2019-02-11T17:15:45.272Z,6.20
2019-02-11T17:18:15.609Z,6.20
2019-02-11T17:20:43.171Z,6.30
2019-02-11T17:23:10.567Z,6.30
2019-02-11T17:25:37.688Z,6.30
2019-02-11T17:28:04.769Z,6.30
2019-02-11T17:30:32.489Z,6.20
2019-02-11T17:32:59.926Z,6.20
2019-02-11T17:35:27.216Z,6.10
2019-02-11T17:37:54.371Z,6.10
2019-02-11T17:40:21.839Z,6.10
2019-02-11T17:42:49.147Z,6.10
2019-02-11T17:45:18.823Z,6.10
2019-02-11T17:47:46.060Z,6.10
2019-02-11T17:50:13.414Z,6.10
2019-02-11T17:52:40.835Z,6.10
2019-02-11T17:55:09.173Z,6.10
2019-02-11T17:57:36.462Z,6.20
2019-02-11T18:00:07.407Z,6.20
2019-02-11T18:02:34.583Z,6.10
2019-02-11T18:05:02.010Z,6.10
2019-02-11T18:07:29.577Z,6.00
2019-02-11T18:09:56.879Z,6.00
2019-02-11T18:12:24.190Z,6.10
2019-02-11T18:14:51.479Z,6.10
2019-02-11T18:17:18.858Z,6.20
2019-02-11T18:19:46.069Z,6.20
2019-02-11T18:22:15.339Z,6.30
2019-02-11T18:24:42.666Z,6.30
2019-02-11T18:27:10.075Z,6.40
2019-02-11T18:29:38.459Z,6.40
2019-02-11T18:32:05.667Z,6.40
2019-02-11T18:34:32.987Z,6.40
2019-02-11T18:37:00.209Z,6.40
2019-02-11T18:39:27.495Z,6.30
2019-02-11T18:41:56.609Z,6.30
2019-02-11T18:44:24.128Z,6.30
2019-02-11T18:46:51.446Z,6.30
2019-02-11T18:49:18.969Z,6.30
2019-02-11T18:51:46.498Z,6.30
2019-02-11T18:54:13.679Z,6.20
2019-02-11T18:56:40.993Z,6.30
2019-02-11T18:59:08.094Z,6.20
2019-02-11T19:01:35.299Z,6.20
2019-02-11T19:04:02.603Z,6.20
2019-02-11T19:06:29.736Z,6.10
2019-02-11T19:08:57.054Z,6.00
2019-02-11T19:11:24.375Z,5.90
2019-02-11T19:13:51.914Z,5.90
2019-02-11T19:16:19.198Z,5.80
2019-02-11T19:18:46.315Z,5.90
2019-02-11T19:21:13.663Z,5.90
2019-02-11T19:23:42.819Z,5.70
2019-02-11T19:26:11.095Z,5.80
2019-02-11T19:28:38.518Z,5.70
2019-02-11T19:31:05.832Z,5.60
2019-02-11T19:33:33.157Z,5.60
2019-02-11T19:36:00.516Z,5.60
2019-02-11T19:38:27.751Z,5.60
2019-02-11T19:40:55.007Z,5.50
2019-02-11T19:43:22.359Z,5.60
2019-02-11T19:45:49.751Z,5.60
2019-02-11T19:48:17.064Z,5.60
2019-02-11T19:50:44.527Z,5.70
2019-02-11T19:53:11.846Z,5.60
2019-02-11T19:55:39.063Z,5.60
2019-02-11T19:58:06.262Z,5.60
2019-02-11T20:00:33.632Z,5.60
2019-02-11T20:03:01.042Z,5.50
2019-02-11T20:05:28.157Z,5.50
2019-02-11T20:07:55.581Z,5.40
2019-02-11T20:10:22.996Z,5.40
2019-02-11T20:12:50.100Z,5.50
2019-02-11T20:15:19.312Z,5.50
2019-02-11T20:17:46.701Z,5.40
2019-02-11T20:20:15.974Z,5.40
2019-02-11T20:22:43.465Z,5.50
2019-02-11T20:25:10.724Z,5.50
2019-02-11T20:27:37.912Z,5.50
2019-02-11T20:30:08.544Z,5.50
2019-02-11T20:32:35.839Z,5.50
2019-02-11T20:35:03.584Z,5.50
2019-02-11T20:37:31.899Z,5.40
2019-02-11T20:40:03.537Z,5.40
2019-02-11T20:42:28.201Z,5.40
2019-02-11T20:44:55.507Z,5.40
2019-02-11T20:47:22.815Z,5.40
2019-02-11T20:49:50.174Z,5.30
2019-02-11T20:52:17.351Z,5.30
2019-02-11T20:54:44.697Z,5.20
2019-02-11T20:57:12.118Z,5.20
2019-02-11T20:59:39.437Z,5.10
2019-02-11T21:02:06.810Z,5.00
2019-02-11T21:04:34.099Z,5.00
2019-02-11T21:07:01.331Z,4.90
2019-02-11T21:09:30.491Z,4.90
2019-02-11T21:11:57.682Z,4.80
2019-02-11T21:14:24.865Z,4.70
2019-02-11T21:16:52.226Z,4.70
2019-02-11T21:19:19.579Z,4.70
2019-02-11T21:21:46.958Z,4.60
2019-02-11T21:24:14.307Z,4.60
2019-02-11T21:26:42.659Z,4.50
2019-02-11T21:29:10.127Z,4.40
2019-02-11T21:31:37.429Z,4.30
2019-02-11T21:34:04.551Z,4.30
2019-02-11T21:36:31.677Z,4.30
2019-02-11T21:38:59.175Z,4.20
2019-02-11T21:41:26.396Z,4.30
2019-02-11T21:43:53.696Z,4.20
2019-02-11T21:46:21.133Z,4.20
2019-02-11T21:48:48.520Z,4.10
2019-02-11T21:51:15.863Z,4.10
2019-02-11T21:53:43.147Z,4.10
2019-02-11T21:56:10.486Z,4.00
2019-02-11T21:58:37.666Z,4.00
2019-02-11T22:01:05.060Z,4.10
2019-02-11T22:03:32.358Z,4.10
2019-02-11T22:05:59.668Z,4.10
2019-02-11T22:08:27.224Z,4.10
2019-02-11T22:10:54.734Z,4.10
2019-02-11T22:13:22.055Z,4.10
2019-02-11T22:15:49.603Z,4.10
2019-02-11T22:18:17.092Z,4.20
2019-02-11T22:20:44.642Z,4.20
2019-02-11T22:23:12.065Z,4.10
2019-02-11T22:25:39.247Z,4.20
2019-02-11T22:28:06.753Z,4.10
2019-02-11T22:30:35.102Z,4.10
2019-02-11T22:33:02.459Z,4.10
2019-02-11T22:35:29.804Z,4.10
2019-02-11T22:37:57.135Z,4.00
2019-02-11T22:40:24.403Z,4.10
2019-02-11T22:42:51.723Z,4.00
2019-02-11T22:45:20.227Z,4.00
2019-02-11T22:47:47.637Z,4.00
2019-02-11T22:50:14.820Z,4.10
2019-02-11T22:52:42.143Z,4.10
2019-02-11T22:55:09.443Z,4.10
2019-02-11T22:57:36.800Z,4.10
2019-02-11T23:00:07.042Z,4.10
2019-02-11T23:02:36.305Z,4.00
2019-02-11T23:05:03.989Z,4.00
2019-02-11T23:07:31.215Z,4.00
2019-02-11T23:09:58.515Z,4.00
2019-02-11T23:12:25.944Z,4.00
2019-02-11T23:14:53.242Z,4.00
2019-02-11T23:17:20.596Z,4.00
2019-02-11T23:19:47.999Z,4.00
2019-02-11T23:22:15.343Z,3.90
2019-02-11T23:24:42.863Z,3.90
2019-02-11T23:27:10.167Z,3.90
2019-02-11T23:29:37.559Z,3.80
2019-02-11T23:32:05.041Z,3.80
2019-02-11T23:34:32.505Z,3.80
2019-02-11T23:36:59.789Z,3.80
2019-02-11T23:39:26.991Z,3.80
2019-02-11T23:41:54.394Z,3.70
2019-02-11T23:44:21.715Z,3.80
2019-02-11T23:46:48.905Z,3.70
2019-02-11T23:49:16.453Z,3.70
2019-02-11T23:51:43.807Z,3.70
2019-02-11T23:54:11.276Z,3.70
2019-02-11T23:56:38.491Z,3.60
2019-02-11T23:59:07.007Z,3.60
